sensor_id;sensor_type;location;lat;lon;timestamp;pressure;altitude;pressure_sealevel;temperature
15845;BMP180;50807;52.436;13.346;2023-04-08T00:00:24;101577.00;;;11.70
15845;BMP180;50807;52.436;13.346;2023-04-08T00:00:56;101583.00;;;11.70
15845;BMP180;50807;52.436;13.346;2023-04-08T00:01:27;101578.00;;;11.70
15845;BMP180;50807;52.436;13.346;2023-04-08T00:01:59;101579.00;;;11.80
15845;BMP180;50807;52.436;13.346;2023-04-08T00:02:29;101584.00;;;11.70
15845;BMP180;50807;52.436;13.346;2023-04-08T00:03:00;101578.00;;;11.80
15845;BMP180;50807;52.436;13.346;2023-04-08T00:03:32;101583.00;;;11.70
15845;BMP180;50807;52.436;13.346;2023-04-08T00:04:03;101579.00;;;11.80
15845;BMP180;50807;52.436;13.346;2023-04-08T00:04:34;101581.00;;;11.70
15845;BMP180;50807;52.436;13.346;2023-04-08T00:05:06;101582.00;;;11.80
15845;BMP180;50807;52.436;13.346;2023-04-08T00:05:38;101587.00;;;11.70
15845;BMP180;50807;52.436;13.346;2023-04-08T00:06:09;101586.00;;;11.70
15845;BMP180;50807;52.436;13.346;2023-04-08T00:06:41;101576.00;;;11.80
15845;BMP180;50807;52.436;13.346;2023-04-08T00:07:12;101583.00;;;11.80
15845;BMP180;50807;52.436;13.346;2023-04-08T00:07:43;101586.00;;;11.80
15845;BMP180;50807;52.436;13.346;2023-04-08T00:08:14;101582.00;;;11.80
15845;BMP180;50807;52.436;13.346;2023-04-08T00:08:45;101581.00;;;11.80
15845;BMP180;50807;52.436;13.346;2023-04-08T00:09:16;101582.00;;;11.80
15845;BMP180;50807;52.436;13.346;2023-04-08T00:09:48;101583.00;;;11.80
15845;BMP180;50807;52.436;13.346;2023-04-08T00:10:20;101587.00;;;11.80
15845;BMP180;50807;52.436;13.346;2023-04-08T00:10:50;101572.00;;;11.80
15845;BMP180;50807;52.436;13.346;2023-04-08T00:11:23;101581.00;;;11.80
15845;BMP180;50807;52.436;13.346;2023-04-08T00:11:53;101583.00;;;11.80
15845;BMP180;50807;52.436;13.346;2023-04-08T00:12:26;101587.00;;;11.80
15845;BMP180;50807;52.436;13.346;2023-04-08T00:12:58;101583.00;;;11.80
15845;BMP180;50807;52.436;13.346;2023-04-08T00:13:30;101578.00;;;11.80
15845;BMP180;50807;52.436;13.346;2023-04-08T00:14:02;101576.00;;;11.80
15845;BMP180;50807;52.436;13.346;2023-04-08T00:14:34;101585.00;;;11.80
15845;BMP180;50807;52.436;13.346;2023-04-08T00:15:06;101579.00;;;11.80
15845;BMP180;50807;52.436;13.346;2023-04-08T00:15:36;101569.00;;;11.80
15845;BMP180;50807;52.436;13.346;2023-04-08T00:16:08;101578.00;;;11.80
15845;BMP180;50807;52.436;13.346;2023-04-08T00:16:39;101577.00;;;11.80
15845;BMP180;50807;52.436;13.346;2023-04-08T00:17:10;101575.00;;;11.80
15845;BMP180;50807;52.436;13.346;2023-04-08T00:17:41;101577.00;;;11.80
15845;BMP180;50807;52.436;13.346;2023-04-08T00:18:13;101580.00;;;11.80
15845;BMP180;50807;52.436;13.346;2023-04-08T00:18:45;101575.00;;;11.80
15845;BMP180;50807;52.436;13.346;2023-04-08T00:19:15;101580.00;;;11.80
15845;BMP180;50807;52.436;13.346;2023-04-08T00:19:47;101585.00;;;11.80
15845;BMP180;50807;52.436;13.346;2023-04-08T00:20:18;101586.00;;;11.80
15845;BMP180;50807;52.436;13.346;2023-04-08T00:20:50;101582.00;;;11.80
15845;BMP180;50807;52.436;13.346;2023-04-08T00:21:22;101583.00;;;11.80
15845;BMP180;50807;52.436;13.346;2023-04-08T00:21:53;101590.00;;;11.90
15845;BMP180;50807;52.436;13.346;2023-04-08T00:22:23;101579.00;;;11.80
15845;BMP180;50807;52.436;13.346;2023-04-08T00:22:55;101588.00;;;11.80
15845;BMP180;50807;52.436;13.346;2023-04-08T00:23:27;101586.00;;;11.80
15845;BMP180;50807;52.436;13.346;2023-04-08T00:23:57;101582.00;;;11.80
15845;BMP180;50807;52.436;13.346;2023-04-08T00:24:28;101582.00;;;11.90
15845;BMP180;50807;52.436;13.346;2023-04-08T00:25:00;101582.00;;;11.90
15845;BMP180;50807;52.436;13.346;2023-04-08T00:25:31;101582.00;;;11.90
15845;BMP180;50807;52.436;13.346;2023-04-08T00:26:02;101575.00;;;11.90
15845;BMP180;50807;52.436;13.346;2023-04-08T00:26:34;101578.00;;;11.90
15845;BMP180;50807;52.436;13.346;2023-04-08T00:27:04;101583.00;;;11.90
15845;BMP180;50807;52.436;13.346;2023-04-08T00:27:35;101589.00;;;11.80
15845;BMP180;50807;52.436;13.346;2023-04-08T00:28:07;101582.00;;;11.90
15845;BMP180;50807;52.436;13.346;2023-04-08T00:28:38;101578.00;;;11.80
15845;BMP180;50807;52.436;13.346;2023-04-08T00:29:09;101583.00;;;11.80
15845;BMP180;50807;52.436;13.346;2023-04-08T00:29:41;101575.00;;;11.90
15845;BMP180;50807;52.436;13.346;2023-04-08T00:30:11;101587.00;;;11.90
15845;BMP180;50807;52.436;13.346;2023-04-08T00:30:42;101590.00;;;11.80
15845;BMP180;50807;52.436;13.346;2023-04-08T00:31:14;101586.00;;;11.80
15845;BMP180;50807;52.436;13.346;2023-04-08T00:31:45;101583.00;;;11.80
15845;BMP180;50807;52.436;13.346;2023-04-08T00:32:16;101581.00;;;11.80
15845;BMP180;50807;52.436;13.346;2023-04-08T00:32:47;101584.00;;;11.80
15845;BMP180;50807;52.436;13.346;2023-04-08T00:33:18;101578.00;;;11.80
15845;BMP180;50807;52.436;13.346;2023-04-08T00:33:49;101580.00;;;11.80
15845;BMP180;50807;52.436;13.346;2023-04-08T00:34:21;101579.00;;;11.80
15845;BMP180;50807;52.436;13.346;2023-04-08T00:34:51;101582.00;;;11.80
15845;BMP180;50807;52.436;13.346;2023-04-08T00:35:22;101584.00;;;11.80
15845;BMP180;50807;52.436;13.346;2023-04-08T00:35:56;101573.00;;;11.80
15845;BMP180;50807;52.436;13.346;2023-04-08T00:36:27;101579.00;;;11.80
15845;BMP180;50807;52.436;13.346;2023-04-08T00:36:59;101580.00;;;11.80
15845;BMP180;50807;52.436;13.346;2023-04-08T00:37:31;101584.00;;;11.80
15845;BMP180;50807;52.436;13.346;2023-04-08T00:38:02;101578.00;;;11.80
15845;BMP180;50807;52.436;13.346;2023-04-08T00:38:33;101584.00;;;11.80
15845;BMP180;50807;52.436;13.346;2023-04-08T00:39:05;101580.00;;;11.80
15845;BMP180;50807;52.436;13.346;2023-04-08T00:39:36;101585.00;;;11.80
15845;BMP180;50807;52.436;13.346;2023-04-08T00:40:08;101582.00;;;11.80
15845;BMP180;50807;52.436;13.346;2023-04-08T00:40:40;101578.00;;;11.80
15845;BMP180;50807;52.436;13.346;2023-04-08T00:41:11;101579.00;;;11.80
15845;BMP180;50807;52.436;13.346;2023-04-08T00:41:42;101582.00;;;11.80
15845;BMP180;50807;52.436;13.346;2023-04-08T00:42:14;101580.00;;;11.80
15845;BMP180;50807;52.436;13.346;2023-04-08T00:42:45;101584.00;;;11.80
15845;BMP180;50807;52.436;13.346;2023-04-08T00:43:16;101587.00;;;11.80
15845;BMP180;50807;52.436;13.346;2023-04-08T00:43:53;101581.00;;;11.80
15845;BMP180;50807;52.436;13.346;2023-04-08T00:44:24;101584.00;;;11.80
15845;BMP180;50807;52.436;13.346;2023-04-08T00:44:55;101588.00;;;11.80
15845;BMP180;50807;52.436;13.346;2023-04-08T00:45:27;101576.00;;;11.70
15845;BMP180;50807;52.436;13.346;2023-04-08T00:45:57;101590.00;;;11.70
15845;BMP180;50807;52.436;13.346;2023-04-08T00:46:29;101580.00;;;11.70
15845;BMP180;50807;52.436;13.346;2023-04-08T00:47:00;101585.00;;;11.70
15845;BMP180;50807;52.436;13.346;2023-04-08T00:47:32;101585.00;;;11.70
15845;BMP180;50807;52.436;13.346;2023-04-08T00:48:05;101584.00;;;11.70
15845;BMP180;50807;52.436;13.346;2023-04-08T00:48:36;101590.00;;;11.70
15845;BMP180;50807;52.436;13.346;2023-04-08T00:49:07;101586.00;;;11.70
15845;BMP180;50807;52.436;13.346;2023-04-08T00:49:39;101594.00;;;11.70
15845;BMP180;50807;52.436;13.346;2023-04-08T00:50:10;101586.00;;;11.70
15845;BMP180;50807;52.436;13.346;2023-04-08T00:50:42;101589.00;;;11.70
15845;BMP180;50807;52.436;13.346;2023-04-08T00:51:14;101587.00;;;11.70
15845;BMP180;50807;52.436;13.346;2023-04-08T00:51:45;101593.00;;;11.70
15845;BMP180;50807;52.436;13.346;2023-04-08T00:52:17;101587.00;;;11.70
15845;BMP180;50807;52.436;13.346;2023-04-08T00:52:48;101585.00;;;11.70
15845;BMP180;50807;52.436;13.346;2023-04-08T00:53:19;101577.00;;;11.70
15845;BMP180;50807;52.436;13.346;2023-04-08T00:53:50;101583.00;;;11.70
15845;BMP180;50807;52.436;13.346;2023-04-08T00:54:21;101584.00;;;11.70
15845;BMP180;50807;52.436;13.346;2023-04-08T00:54:52;101571.00;;;11.70
15845;BMP180;50807;52.436;13.346;2023-04-08T00:55:24;101575.00;;;11.70
15845;BMP180;50807;52.436;13.346;2023-04-08T00:55:54;101580.00;;;11.70
15845;BMP180;50807;52.436;13.346;2023-04-08T00:56:25;101580.00;;;11.80
15845;BMP180;50807;52.436;13.346;2023-04-08T00:56:57;101578.00;;;11.70
15845;BMP180;50807;52.436;13.346;2023-04-08T00:57:29;101585.00;;;11.70
15845;BMP180;50807;52.436;13.346;2023-04-08T00:58:00;101582.00;;;11.70
15845;BMP180;50807;52.436;13.346;2023-04-08T00:58:32;101583.00;;;11.70
15845;BMP180;50807;52.436;13.346;2023-04-08T00:59:04;101582.00;;;11.70
15845;BMP180;50807;52.436;13.346;2023-04-08T00:59:35;101580.00;;;11.70
15845;BMP180;50807;52.436;13.346;2023-04-08T01:00:09;101583.00;;;11.70
15845;BMP180;50807;52.436;13.346;2023-04-08T01:00:48;101576.00;;;11.60
15845;BMP180;50807;52.436;13.346;2023-04-08T01:01:28;101586.00;;;11.60
15845;BMP180;50807;52.436;13.346;2023-04-08T01:02:13;101583.00;;;11.50
15845;BMP180;50807;52.436;13.346;2023-04-08T01:03:00;101573.00;;;11.50
15845;BMP180;50807;52.436;13.346;2023-04-08T01:03:47;101569.00;;;11.50
15845;BMP180;50807;52.436;13.346;2023-04-08T01:04:31;101573.00;;;11.50
15845;BMP180;50807;52.436;13.346;2023-04-08T01:05:07;101578.00;;;11.50
15845;BMP180;50807;52.436;13.346;2023-04-08T01:05:46;101574.00;;;11.50
15845;BMP180;50807;52.436;13.346;2023-04-08T01:06:33;101578.00;;;11.50
15845;BMP180;50807;52.436;13.346;2023-04-08T01:07:14;101577.00;;;11.50
15845;BMP180;50807;52.436;13.346;2023-04-08T01:07:48;101577.00;;;11.50
15845;BMP180;50807;52.436;13.346;2023-04-08T01:08:23;101577.00;;;11.50
15845;BMP180;50807;52.436;13.346;2023-04-08T01:08:54;101586.00;;;11.60
15845;BMP180;50807;52.436;13.346;2023-04-08T01:09:32;101574.00;;;11.50
15845;BMP180;50807;52.436;13.346;2023-04-08T01:10:16;101569.00;;;11.50
15845;BMP180;50807;52.436;13.346;2023-04-08T01:10:53;101575.00;;;11.50
15845;BMP180;50807;52.436;13.346;2023-04-08T01:11:26;101571.00;;;11.50
15845;BMP180;50807;52.436;13.346;2023-04-08T01:12:05;101577.00;;;11.50
15845;BMP180;50807;52.436;13.346;2023-04-08T01:12:55;101575.00;;;11.50
15845;BMP180;50807;52.436;13.346;2023-04-08T01:13:33;101580.00;;;11.50
15845;BMP180;50807;52.436;13.346;2023-04-08T01:14:08;101584.00;;;11.50
15845;BMP180;50807;52.436;13.346;2023-04-08T01:14:44;101585.00;;;11.50
15845;BMP180;50807;52.436;13.346;2023-04-08T01:15:16;101585.00;;;11.60
15845;BMP180;50807;52.436;13.346;2023-04-08T01:15:49;101589.00;;;11.60
15845;BMP180;50807;52.436;13.346;2023-04-08T01:16:22;101585.00;;;11.60
15845;BMP180;50807;52.436;13.346;2023-04-08T01:16:57;101590.00;;;11.60
15845;BMP180;50807;52.436;13.346;2023-04-08T01:17:31;101591.00;;;11.70
15845;BMP180;50807;52.436;13.346;2023-04-08T01:18:07;101582.00;;;11.60
15845;BMP180;50807;52.436;13.346;2023-04-08T01:18:40;101583.00;;;11.70
15845;BMP180;50807;52.436;13.346;2023-04-08T01:19:21;101586.00;;;11.60
15845;BMP180;50807;52.436;13.346;2023-04-08T01:19:57;101585.00;;;11.60
15845;BMP180;50807;52.436;13.346;2023-04-08T01:20:29;101579.00;;;11.60
15845;BMP180;50807;52.436;13.346;2023-04-08T01:21:02;101584.00;;;11.60
15845;BMP180;50807;52.436;13.346;2023-04-08T01:21:36;101588.00;;;11.60
15845;BMP180;50807;52.436;13.346;2023-04-08T01:22:25;101583.00;;;11.50
15845;BMP180;50807;52.436;13.346;2023-04-08T01:23:09;101590.00;;;11.50
15845;BMP180;50807;52.436;13.346;2023-04-08T01:23:56;101593.00;;;11.50
15845;BMP180;50807;52.436;13.346;2023-04-08T01:24:38;101592.00;;;11.50
15845;BMP180;50807;52.436;13.346;2023-04-08T01:25:16;101597.00;;;11.50
15845;BMP180;50807;52.436;13.346;2023-04-08T01:25:50;101595.00;;;11.50
15845;BMP180;50807;52.436;13.346;2023-04-08T01:26:25;101593.00;;;11.60
15845;BMP180;50807;52.436;13.346;2023-04-08T01:26:58;101590.00;;;11.60
15845;BMP180;50807;52.436;13.346;2023-04-08T01:27:32;101590.00;;;11.60
15845;BMP180;50807;52.436;13.346;2023-04-08T01:28:09;101592.00;;;11.60
15845;BMP180;50807;52.436;13.346;2023-04-08T01:28:42;101590.00;;;11.60
15845;BMP180;50807;52.436;13.346;2023-04-08T01:29:15;101594.00;;;11.60
15845;BMP180;50807;52.436;13.346;2023-04-08T01:29:47;101588.00;;;11.60
15845;BMP180;50807;52.436;13.346;2023-04-08T01:30:24;101590.00;;;11.60
15845;BMP180;50807;52.436;13.346;2023-04-08T01:30:58;101589.00;;;11.60
15845;BMP180;50807;52.436;13.346;2023-04-08T01:31:31;101590.00;;;11.60
15845;BMP180;50807;52.436;13.346;2023-04-08T01:32:04;101592.00;;;11.60
15845;BMP180;50807;52.436;13.346;2023-04-08T01:32:38;101596.00;;;11.60
15845;BMP180;50807;52.436;13.346;2023-04-08T01:33:13;101594.00;;;11.60
15845;BMP180;50807;52.436;13.346;2023-04-08T01:33:46;101595.00;;;11.70
15845;BMP180;50807;52.436;13.346;2023-04-08T01:34:20;101593.00;;;11.70
15845;BMP180;50807;52.436;13.346;2023-04-08T01:34:52;101594.00;;;11.70
15845;BMP180;50807;52.436;13.346;2023-04-08T01:35:24;101595.00;;;11.70
15845;BMP180;50807;52.436;13.346;2023-04-08T01:35:56;101596.00;;;11.70
15845;BMP180;50807;52.436;13.346;2023-04-08T01:36:29;101595.00;;;11.70
15845;BMP180;50807;52.436;13.346;2023-04-08T01:37:04;101598.00;;;11.70
15845;BMP180;50807;52.436;13.346;2023-04-08T01:37:36;101598.00;;;11.70
15845;BMP180;50807;52.436;13.346;2023-04-08T01:38:13;101593.00;;;11.70
15845;BMP180;50807;52.436;13.346;2023-04-08T01:38:47;101589.00;;;11.70
15845;BMP180;50807;52.436;13.346;2023-04-08T01:39:20;101597.00;;;11.70
15845;BMP180;50807;52.436;13.346;2023-04-08T01:39:52;101595.00;;;11.70
15845;BMP180;50807;52.436;13.346;2023-04-08T01:40:25;101593.00;;;11.70
15845;BMP180;50807;52.436;13.346;2023-04-08T01:40:58;101602.00;;;11.70
15845;BMP180;50807;52.436;13.346;2023-04-08T01:41:29;101602.00;;;11.70
15845;BMP180;50807;52.436;13.346;2023-04-08T01:42:02;101596.00;;;11.70
15845;BMP180;50807;52.436;13.346;2023-04-08T01:42:35;101601.00;;;11.70
15845;BMP180;50807;52.436;13.346;2023-04-08T01:43:09;101596.00;;;11.70
15845;BMP180;50807;52.436;13.346;2023-04-08T01:43:43;101594.00;;;11.70
15845;BMP180;50807;52.436;13.346;2023-04-08T01:44:16;101589.00;;;11.70
15845;BMP180;50807;52.436;13.346;2023-04-08T01:44:48;101589.00;;;11.70
15845;BMP180;50807;52.436;13.346;2023-04-08T01:45:22;101599.00;;;11.60
15845;BMP180;50807;52.436;13.346;2023-04-08T01:45:54;101591.00;;;11.70
15845;BMP180;50807;52.436;13.346;2023-04-08T01:46:30;101598.00;;;11.60
15845;BMP180;50807;52.436;13.346;2023-04-08T01:47:03;101600.00;;;11.60
15845;BMP180;50807;52.436;13.346;2023-04-08T01:47:34;101596.00;;;11.60
15845;BMP180;50807;52.436;13.346;2023-04-08T01:48:07;101596.00;;;11.60
15845;BMP180;50807;52.436;13.346;2023-04-08T01:48:40;101600.00;;;11.70
15845;BMP180;50807;52.436;13.346;2023-04-08T01:49:11;101600.00;;;11.70
15845;BMP180;50807;52.436;13.346;2023-04-08T01:49:43;101602.00;;;11.70
15845;BMP180;50807;52.436;13.346;2023-04-08T01:50:16;101602.00;;;11.70
15845;BMP180;50807;52.436;13.346;2023-04-08T01:50:48;101599.00;;;11.70
15845;BMP180;50807;52.436;13.346;2023-04-08T01:51:20;101600.00;;;11.70
15845;BMP180;50807;52.436;13.346;2023-04-08T01:51:54;101597.00;;;11.70
15845;BMP180;50807;52.436;13.346;2023-04-08T01:52:29;101603.00;;;11.60
15845;BMP180;50807;52.436;13.346;2023-04-08T01:53:01;101599.00;;;11.60
15845;BMP180;50807;52.436;13.346;2023-04-08T01:53:32;101589.00;;;11.60
15845;BMP180;50807;52.436;13.346;2023-04-08T01:54:04;101600.00;;;11.60
15845;BMP180;50807;52.436;13.346;2023-04-08T01:54:35;101602.00;;;11.70
15845;BMP180;50807;52.436;13.346;2023-04-08T01:55:07;101595.00;;;11.70
15845;BMP180;50807;52.436;13.346;2023-04-08T01:55:40;101605.00;;;11.70
15845;BMP180;50807;52.436;13.346;2023-04-08T01:56:15;101602.00;;;11.60
15845;BMP180;50807;52.436;13.346;2023-04-08T01:56:47;101595.00;;;11.70
15845;BMP180;50807;52.436;13.346;2023-04-08T01:57:23;101603.00;;;11.60
15845;BMP180;50807;52.436;13.346;2023-04-08T01:57:59;101598.00;;;11.60
15845;BMP180;50807;52.436;13.346;2023-04-08T01:58:37;101599.00;;;11.60
15845;BMP180;50807;52.436;13.346;2023-04-08T01:59:13;101604.00;;;11.50
15845;BMP180;50807;52.436;13.346;2023-04-08T01:59:49;101603.00;;;11.60
15845;BMP180;50807;52.436;13.346;2023-04-08T02:00:25;101604.00;;;11.60
15845;BMP180;50807;52.436;13.346;2023-04-08T02:00:57;101603.00;;;11.60
15845;BMP180;50807;52.436;13.346;2023-04-08T02:01:31;101605.00;;;11.60
15845;BMP180;50807;52.436;13.346;2023-04-08T02:02:06;101603.00;;;11.60
15845;BMP180;50807;52.436;13.346;2023-04-08T02:02:41;101599.00;;;11.60
15845;BMP180;50807;52.436;13.346;2023-04-08T02:03:13;101599.00;;;11.60
15845;BMP180;50807;52.436;13.346;2023-04-08T02:03:48;101602.00;;;11.60
15845;BMP180;50807;52.436;13.346;2023-04-08T02:04:21;101600.00;;;11.60
15845;BMP180;50807;52.436;13.346;2023-04-08T02:04:52;101607.00;;;11.60
15845;BMP180;50807;52.436;13.346;2023-04-08T02:05:23;101600.00;;;11.70
15845;BMP180;50807;52.436;13.346;2023-04-08T02:05:55;101601.00;;;11.70
15845;BMP180;50807;52.436;13.346;2023-04-08T02:06:27;101591.00;;;11.60
15845;BMP180;50807;52.436;13.346;2023-04-08T02:07:00;101606.00;;;11.60
15845;BMP180;50807;52.436;13.346;2023-04-08T02:07:31;101595.00;;;11.60
15845;BMP180;50807;52.436;13.346;2023-04-08T02:08:02;101605.00;;;11.60
15845;BMP180;50807;52.436;13.346;2023-04-08T02:08:34;101597.00;;;11.70
15845;BMP180;50807;52.436;13.346;2023-04-08T02:09:05;101593.00;;;11.60
15845;BMP180;50807;52.436;13.346;2023-04-08T02:09:37;101602.00;;;11.70
15845;BMP180;50807;52.436;13.346;2023-04-08T02:10:10;101603.00;;;11.60
15845;BMP180;50807;52.436;13.346;2023-04-08T02:10:40;101598.00;;;11.70
15845;BMP180;50807;52.436;13.346;2023-04-08T02:11:11;101592.00;;;11.70
15845;BMP180;50807;52.436;13.346;2023-04-08T02:11:44;101590.00;;;11.60
15845;BMP180;50807;52.436;13.346;2023-04-08T02:12:15;101595.00;;;11.60
15845;BMP180;50807;52.436;13.346;2023-04-08T02:12:46;101597.00;;;11.70
15845;BMP180;50807;52.436;13.346;2023-04-08T02:13:18;101592.00;;;11.70
15845;BMP180;50807;52.436;13.346;2023-04-08T02:13:48;101591.00;;;11.70
15845;BMP180;50807;52.436;13.346;2023-04-08T02:14:19;101587.00;;;11.70
15845;BMP180;50807;52.436;13.346;2023-04-08T02:14:52;101593.00;;;11.60
15845;BMP180;50807;52.436;13.346;2023-04-08T02:15:27;101596.00;;;11.60
15845;BMP180;50807;52.436;13.346;2023-04-08T02:16:09;101593.00;;;11.60
15845;BMP180;50807;52.436;13.346;2023-04-08T02:16:52;101601.00;;;11.50
15845;BMP180;50807;52.436;13.346;2023-04-08T02:17:31;101601.00;;;11.50
15845;BMP180;50807;52.436;13.346;2023-04-08T02:18:10;101603.00;;;11.50
15845;BMP180;50807;52.436;13.346;2023-04-08T02:18:50;101596.00;;;11.50
15845;BMP180;50807;52.436;13.346;2023-04-08T02:19:29;101602.00;;;11.50
15845;BMP180;50807;52.436;13.346;2023-04-08T02:20:06;101605.00;;;11.50
15845;BMP180;50807;52.436;13.346;2023-04-08T02:20:43;101607.00;;;11.50
15845;BMP180;50807;52.436;13.346;2023-04-08T02:21:19;101601.00;;;11.60
15845;BMP180;50807;52.436;13.346;2023-04-08T02:21:58;101612.00;;;11.50
15845;BMP180;50807;52.436;13.346;2023-04-08T02:22:41;101612.00;;;11.50
15845;BMP180;50807;52.436;13.346;2023-04-08T02:23:16;101606.00;;;11.60
15845;BMP180;50807;52.436;13.346;2023-04-08T02:23:50;101617.00;;;11.60
15845;BMP180;50807;52.436;13.346;2023-04-08T02:24:21;101619.00;;;11.60
15845;BMP180;50807;52.436;13.346;2023-04-08T02:24:52;101618.00;;;11.60
15845;BMP180;50807;52.436;13.346;2023-04-08T02:25:25;101615.00;;;11.60
15845;BMP180;50807;52.436;13.346;2023-04-08T02:25:57;101615.00;;;11.70
15845;BMP180;50807;52.436;13.346;2023-04-08T02:26:28;101616.00;;;11.60
15845;BMP180;50807;52.436;13.346;2023-04-08T02:27:04;101625.00;;;11.60
15845;BMP180;50807;52.436;13.346;2023-04-08T02:27:38;101618.00;;;11.60
15845;BMP180;50807;52.436;13.346;2023-04-08T02:28:11;101619.00;;;11.60
15845;BMP180;50807;52.436;13.346;2023-04-08T02:28:43;101623.00;;;11.60
15845;BMP180;50807;52.436;13.346;2023-04-08T02:29:15;101609.00;;;11.60
15845;BMP180;50807;52.436;13.346;2023-04-08T02:29:49;101623.00;;;11.60
15845;BMP180;50807;52.436;13.346;2023-04-08T02:30:24;101624.00;;;11.60
15845;BMP180;50807;52.436;13.346;2023-04-08T02:30:58;101621.00;;;11.60
15845;BMP180;50807;52.436;13.346;2023-04-08T02:31:30;101617.00;;;11.60
15845;BMP180;50807;52.436;13.346;2023-04-08T02:32:05;101621.00;;;11.60
15845;BMP180;50807;52.436;13.346;2023-04-08T02:32:36;101619.00;;;11.60
15845;BMP180;50807;52.436;13.346;2023-04-08T02:33:08;101623.00;;;11.60
15845;BMP180;50807;52.436;13.346;2023-04-08T02:33:42;101626.00;;;11.60
15845;BMP180;50807;52.436;13.346;2023-04-08T02:34:14;101626.00;;;11.60
15845;BMP180;50807;52.436;13.346;2023-04-08T02:34:47;101619.00;;;11.60
15845;BMP180;50807;52.436;13.346;2023-04-08T02:35:20;101621.00;;;11.60
15845;BMP180;50807;52.436;13.346;2023-04-08T02:35:53;101619.00;;;11.60
15845;BMP180;50807;52.436;13.346;2023-04-08T02:36:25;101623.00;;;11.70
15845;BMP180;50807;52.436;13.346;2023-04-08T02:36:57;101624.00;;;11.70
15845;BMP180;50807;52.436;13.346;2023-04-08T02:37:29;101621.00;;;11.70
15845;BMP180;50807;52.436;13.346;2023-04-08T02:38:00;101619.00;;;11.70
15845;BMP180;50807;52.436;13.346;2023-04-08T02:38:31;101624.00;;;11.60
15845;BMP180;50807;52.436;13.346;2023-04-08T02:39:03;101621.00;;;11.70
15845;BMP180;50807;52.436;13.346;2023-04-08T02:39:34;101625.00;;;11.70
15845;BMP180;50807;52.436;13.346;2023-04-08T02:40:24;101621.00;;;11.50
15845;BMP180;50807;52.436;13.346;2023-04-08T02:40:56;101619.00;;;11.60
15845;BMP180;50807;52.436;13.346;2023-04-08T02:41:28;101617.00;;;11.60
15845;BMP180;50807;52.436;13.346;2023-04-08T02:42:00;101628.00;;;11.60
15845;BMP180;50807;52.436;13.346;2023-04-08T02:42:32;101631.00;;;11.70
15845;BMP180;50807;52.436;13.346;2023-04-08T02:43:03;101632.00;;;11.60
15845;BMP180;50807;52.436;13.346;2023-04-08T02:43:34;101627.00;;;11.70
15845;BMP180;50807;52.436;13.346;2023-04-08T02:44:06;101627.00;;;11.70
15845;BMP180;50807;52.436;13.346;2023-04-08T02:44:37;101626.00;;;11.70
15845;BMP180;50807;52.436;13.346;2023-04-08T02:45:08;101626.00;;;11.60
15845;BMP180;50807;52.436;13.346;2023-04-08T02:45:42;101626.00;;;11.60
15845;BMP180;50807;52.436;13.346;2023-04-08T02:46:13;101634.00;;;11.60
15845;BMP180;50807;52.436;13.346;2023-04-08T02:46:44;101633.00;;;11.70
15845;BMP180;50807;52.436;13.346;2023-04-08T02:47:15;101627.00;;;11.60
15845;BMP180;50807;52.436;13.346;2023-04-08T02:47:47;101625.00;;;11.70
15845;BMP180;50807;52.436;13.346;2023-04-08T02:48:17;101637.00;;;11.70
15845;BMP180;50807;52.436;13.346;2023-04-08T02:48:48;101635.00;;;11.60
15845;BMP180;50807;52.436;13.346;2023-04-08T02:49:20;101636.00;;;11.70
15845;BMP180;50807;52.436;13.346;2023-04-08T02:49:51;101632.00;;;11.70
15845;BMP180;50807;52.436;13.346;2023-04-08T02:50:23;101631.00;;;11.60
15845;BMP180;50807;52.436;13.346;2023-04-08T02:50:55;101635.00;;;11.60
15845;BMP180;50807;52.436;13.346;2023-04-08T02:51:59;101631.00;;;11.60
15845;BMP180;50807;52.436;13.346;2023-04-08T02:52:30;101632.00;;;11.60
15845;BMP180;50807;52.436;13.346;2023-04-08T02:53:02;101631.00;;;11.60
15845;BMP180;50807;52.436;13.346;2023-04-08T02:53:33;101634.00;;;11.60
15845;BMP180;50807;52.436;13.346;2023-04-08T02:54:03;101637.00;;;11.60
15845;BMP180;50807;52.436;13.346;2023-04-08T02:54:35;101634.00;;;11.60
15845;BMP180;50807;52.436;13.346;2023-04-08T02:55:07;101624.00;;;11.60
15845;BMP180;50807;52.436;13.346;2023-04-08T02:55:39;101640.00;;;11.60
15845;BMP180;50807;52.436;13.346;2023-04-08T02:56:11;101643.00;;;11.60
15845;BMP180;50807;52.436;13.346;2023-04-08T02:56:41;101642.00;;;11.60
15845;BMP180;50807;52.436;13.346;2023-04-08T02:57:13;101637.00;;;11.60
15845;BMP180;50807;52.436;13.346;2023-04-08T02:57:47;101639.00;;;11.60
15845;BMP180;50807;52.436;13.346;2023-04-08T02:58:18;101636.00;;;11.60
15845;BMP180;50807;52.436;13.346;2023-04-08T02:58:49;101637.00;;;11.60
15845;BMP180;50807;52.436;13.346;2023-04-08T02:59:21;101639.00;;;11.60
15845;BMP180;50807;52.436;13.346;2023-04-08T02:59:53;101636.00;;;11.60
15845;BMP180;50807;52.436;13.346;2023-04-08T03:00:24;101639.00;;;11.60
15845;BMP180;50807;52.436;13.346;2023-04-08T03:00:54;101636.00;;;11.60
15845;BMP180;50807;52.436;13.346;2023-04-08T03:01:26;101637.00;;;11.60
15845;BMP180;50807;52.436;13.346;2023-04-08T03:01:57;101636.00;;;11.60
15845;BMP180;50807;52.436;13.346;2023-04-08T03:02:28;101639.00;;;11.60
15845;BMP180;50807;52.436;13.346;2023-04-08T03:02:59;101627.00;;;11.60
15845;BMP180;50807;52.436;13.346;2023-04-08T03:03:30;101635.00;;;11.60
15845;BMP180;50807;52.436;13.346;2023-04-08T03:04:01;101638.00;;;11.60
15845;BMP180;50807;52.436;13.346;2023-04-08T03:04:32;101633.00;;;11.60
15845;BMP180;50807;52.436;13.346;2023-04-08T03:05:05;101635.00;;;11.60
15845;BMP180;50807;52.436;13.346;2023-04-08T03:05:36;101632.00;;;11.60
15845;BMP180;50807;52.436;13.346;2023-04-08T03:06:06;101635.00;;;11.60